sensor_id;sensor_type;location;lat;lon;timestamp;pressure;altitude;pressure_sealevel;temperature;humidity
64230;BME280;50547;49.498;0.092;2022-08-19T00:02:02;1012;;;20.56;80.99
64230;BME280;50547;49.498;0.092;2022-08-19T00:04:33;1012;;;20.49;81.85
64230;BME280;50547;49.498;0.092;2022-08-19T00:07:05;1012;;;20.62;81.52
64230;BME280;50547;49.498;0.092;2022-08-19T00:09:34;1012;;;20.63;81.71
64230;BME280;50547;49.498;0.092;2022-08-19T00:12:04;1012;;;20.68;81.73
64230;BME280;50547;49.498;0.092;2022-08-19T00:14:33;1012;;;20.74;81.81
64230;BME280;50547;49.498;0.092;2022-08-19T00:17:03;1012;;;20.75;82.09
64230;BME280;50547;49.498;0.092;2022-08-19T00:19:33;1012;;;20.79;82.34
64230;BME280;50547;49.498;0.092;2022-08-19T00:22:02;1012;;;20.69;83.65
64230;BME280;50547;49.498;0.092;2022-08-19T00:24:32;1012;;;20.73;83.31
64230;BME280;50547;49.498;0.092;2022-08-19T00:27:01;1012;;;20.51;83.62
64230;BME280;50547;49.498;0.092;2022-08-19T00:29:31;1012;;;20.52;83.33
64230;BME280;50547;49.498;0.092;2022-08-19T00:32:00;1012;;;20.45;83.41
64230;BME280;50547;49.498;0.092;2022-08-19T00:34:29;1012;;;20.39;83.92
64230;BME280;50547;49.498;0.092;2022-08-19T00:36:58;1012;;;20.60;83.31
64230;BME280;50547;49.498;0.092;2022-08-19T00:39:27;1012;;;20.46;83.94
64230;BME280;50547;49.498;0.092;2022-08-19T00:41:56;1012;;;20.45;84.86
64230;BME280;50547;49.498;0.092;2022-08-19T00:44:27;1012;;;20.42;85.37
64230;BME280;50547;49.498;0.092;2022-08-19T00:46:58;1012;;;20.35;86.34
64230;BME280;50547;49.498;0.092;2022-08-19T00:49:30;1012;;;20.20;87.89
64230;BME280;50547;49.498;0.092;2022-08-19T00:52:03;1012;;;20.05;88.19
64230;BME280;50547;49.498;0.092;2022-08-19T00:54:33;1012;;;20.03;88.46
64230;BME280;50547;49.498;0.092;2022-08-19T00:57:05;1012;;;20.04;88.50
64230;BME280;50547;49.498;0.092;2022-08-19T00:59:36;1012;;;19.90;88.74
64230;BME280;50547;49.498;0.092;2022-08-19T01:02:07;1012;;;19.79;89.29
64230;BME280;50547;49.498;0.092;2022-08-19T01:04:36;1012;;;19.83;89.50
64230;BME280;50547;49.498;0.092;2022-08-19T01:07:06;1012;;;19.65;90.42
64230;BME280;50547;49.498;0.092;2022-08-19T01:09:36;1012;;;19.77;89.83
64230;BME280;50547;49.498;0.092;2022-08-19T01:12:05;1012;;;19.68;89.86
64230;BME280;50547;49.498;0.092;2022-08-19T01:14:35;1012;;;19.68;89.56
64230;BME280;50547;49.498;0.092;2022-08-19T01:17:07;1012;;;19.65;89.57
64230;BME280;50547;49.498;0.092;2022-08-19T01:19:39;1012;;;19.73;88.87
64230;BME280;50547;49.498;0.092;2022-08-19T01:22:14;1012;;;19.61;89.68
64230;BME280;50547;49.498;0.092;2022-08-19T01:24:45;1012;;;19.70;89.64
64230;BME280;50547;49.498;0.092;2022-08-19T01:27:14;1012;;;19.81;89.47
64230;BME280;50547;49.498;0.092;2022-08-19T01:29:45;1012;;;19.87;89.16
64230;BME280;50547;49.498;0.092;2022-08-19T01:32:16;1012;;;19.94;89.05
64230;BME280;50547;49.498;0.092;2022-08-19T01:34:45;1012;;;19.96;88.78
64230;BME280;50547;49.498;0.092;2022-08-19T01:37:14;1012;;;19.94;88.92
64230;BME280;50547;49.498;0.092;2022-08-19T01:39:44;1012;;;19.94;89.11
64230;BME280;50547;49.498;0.092;2022-08-19T01:42:13;1012;;;20.01;88.82
64230;BME280;50547;49.498;0.092;2022-08-19T01:44:42;1012;;;20.00;88.82
64230;BME280;50547;49.498;0.092;2022-08-19T01:47:11;1012;;;19.80;89.55
64230;BME280;50547;49.498;0.092;2022-08-19T01:49:40;1012;;;19.85;89.49
64230;BME280;50547;49.498;0.092;2022-08-19T01:52:09;1012;;;19.82;89.58
64230;BME280;50547;49.498;0.092;2022-08-19T01:54:38;1012;;;19.92;89.56
64230;BME280;50547;49.498;0.092;2022-08-19T01:57:11;1012;;;19.84;89.79
64230;BME280;50547;49.498;0.092;2022-08-19T01:59:42;1012;;;19.89;89.59
64230;BME280;50547;49.498;0.092;2022-08-19T02:02:13;1012;;;19.95;89.51
64230;BME280;50547;49.498;0.092;2022-08-19T02:04:42;1012;;;19.81;90.23
64230;BME280;50547;49.498;0.092;2022-08-19T02:07:11;1012;;;19.84;90.23
64230;BME280;50547;49.498;0.092;2022-08-19T02:09:41;1012;;;19.91;89.76
64230;BME280;50547;49.498;0.092;2022-08-19T02:12:10;1012;;;20.02;89.02
64230;BME280;50547;49.498;0.092;2022-08-19T02:14:39;1012;;;19.92;89.81
64230;BME280;50547;49.498;0.092;2022-08-19T02:17:09;1011;;;20.01;89.24
64230;BME280;50547;49.498;0.092;2022-08-19T02:19:38;1012;;;20.02;88.99
64230;BME280;50547;49.498;0.092;2022-08-19T02:22:07;1012;;;20.01;88.58
64230;BME280;50547;49.498;0.092;2022-08-19T02:24:36;1012;;;19.98;88.47
64230;BME280;50547;49.498;0.092;2022-08-19T02:27:05;1011;;;20.04;88.47
64230;BME280;50547;49.498;0.092;2022-08-19T02:29:34;1012;;;20.09;88.08
64230;BME280;50547;49.498;0.092;2022-08-19T02:32:03;1012;;;20.24;87.66
64230;BME280;50547;49.498;0.092;2022-08-19T02:34:32;1012;;;20.24;87.50
64230;BME280;50547;49.498;0.092;2022-08-19T02:37:01;1012;;;20.25;88.21
64230;BME280;50547;49.498;0.092;2022-08-19T02:39:30;1012;;;20.22;88.28
64230;BME280;50547;49.498;0.092;2022-08-19T02:42:00;1012;;;20.21;88.03
64230;BME280;50547;49.498;0.092;2022-08-19T02:44:29;1012;;;20.27;87.80
64230;BME280;50547;49.498;0.092;2022-08-19T02:46:58;1012;;;20.16;87.62
64230;BME280;50547;49.498;0.092;2022-08-19T02:49:27;1012;;;20.11;87.71
64230;BME280;50547;49.498;0.092;2022-08-19T02:51:56;1012;;;20.28;87.62
64230;BME280;50547;49.498;0.092;2022-08-19T02:54:25;1012;;;20.16;88.16
64230;BME280;50547;49.498;0.092;2022-08-19T02:56:54;1012;;;20.30;87.36
64230;BME280;50547;49.498;0.092;2022-08-19T02:59:23;1011;;;20.35;87.29
64230;BME280;50547;49.498;0.092;2022-08-19T03:01:52;1012;;;20.28;87.20
64230;BME280;50547;49.498;0.092;2022-08-19T03:04:21;1012;;;20.27;87.13
64230;BME280;50547;49.498;0.092;2022-08-19T03:06:50;1012;;;20.27;87.04
64230;BME280;50547;49.498;0.092;2022-08-19T03:09:20;1012;;;20.25;87.03
64230;BME280;50547;49.498;0.092;2022-08-19T03:11:49;1012;;;20.34;86.55
64230;BME280;50547;49.498;0.092;2022-08-19T03:14:18;1012;;;20.25;86.56
64230;BME280;50547;49.498;0.092;2022-08-19T03:16:50;1012;;;20.32;86.45
64230;BME280;50547;49.498;0.092;2022-08-19T03:19:20;1012;;;20.41;85.87
64230;BME280;50547;49.498;0.092;2022-08-19T03:21:50;1012;;;20.33;84.97
64230;BME280;50547;49.498;0.092;2022-08-19T03:24:20;1011;;;20.45;84.47
64230;BME280;50547;49.498;0.092;2022-08-19T03:26:52;1011;;;20.54;84.18
64230;BME280;50547;49.498;0.092;2022-08-19T03:29:22;1011;;;20.54;84.16
64230;BME280;50547;49.498;0.092;2022-08-19T03:31:52;1012;;;20.58;84.14
64230;BME280;50547;49.498;0.092;2022-08-19T03:34:28;1012;;;20.62;83.87
64230;BME280;50547;49.498;0.092;2022-08-19T03:36:59;1012;;;20.66;83.67
64230;BME280;50547;49.498;0.092;2022-08-19T03:39:28;1011;;;20.69;84.21
64230;BME280;50547;49.498;0.092;2022-08-19T03:41:57;1012;;;20.78;84.42
64230;BME280;50547;49.498;0.092;2022-08-19T03:44:26;1012;;;20.85;84.26
64230;BME280;50547;49.498;0.092;2022-08-19T03:46:57;1012;;;20.86;84.62
64230;BME280;50547;49.498;0.092;2022-08-19T03:49:29;1012;;;20.81;85.07
64230;BME280;50547;49.498;0.092;2022-08-19T03:51:59;1012;;;20.58;86.09
64230;BME280;50547;49.498;0.092;2022-08-19T03:54:28;1012;;;20.57;85.91
64230;BME280;50547;49.498;0.092;2022-08-19T03:56:58;1012;;;20.73;85.45
64230;BME280;50547;49.498;0.092;2022-08-19T03:59:33;1012;;;20.75;85.24
64230;BME280;50547;49.498;0.092;2022-08-19T04:02:07;1012;;;20.67;86.03
64230;BME280;50547;49.498;0.092;2022-08-19T04:04:37;1012;;;20.68;86.05
64230;BME280;50547;49.498;0.092;2022-08-19T04:07:07;1012;;;20.71;85.87
64230;BME280;50547;49.498;0.092;2022-08-19T04:09:37;1012;;;20.69;85.83
64230;BME280;50547;49.498;0.092;2022-08-19T04:12:07;1012;;;20.66;86.29
64230;BME280;50547;49.498;0.092;2022-08-19T04:14:36;1012;;;20.65;86.14
64230;BME280;50547;49.498;0.092;2022-08-19T04:17:05;1012;;;20.65;85.56
64230;BME280;50547;49.498;0.092;2022-08-19T04:19:35;1011;;;20.68;85.70
64230;BME280;50547;49.498;0.092;2022-08-19T04:22:05;1011;;;20.69;85.74
64230;BME280;50547;49.498;0.092;2022-08-19T04:24:34;1012;;;20.70;85.31
64230;BME280;50547;49.498;0.092;2022-08-19T04:27:04;1012;;;20.65;85.29
64230;BME280;50547;49.498;0.092;2022-08-19T04:29:33;1011;;;20.62;85.41
64230;BME280;50547;49.498;0.092;2022-08-19T04:32:03;1011;;;20.66;85.29
64230;BME280;50547;49.498;0.092;2022-08-19T04:34:32;1011;;;20.58;85.66
64230;BME280;50547;49.498;0.092;2022-08-19T04:37:01;1012;;;20.42;86.58
64230;BME280;50547;49.498;0.092;2022-08-19T04:39:33;1012;;;20.38;86.38
64230;BME280;50547;49.498;0.092;2022-08-19T04:42:03;1012;;;20.62;85.42
64230;BME280;50547;49.498;0.092;2022-08-19T04:44:34;1012;;;20.64;85.40
64230;BME280;50547;49.498;0.092;2022-08-19T04:47:03;1012;;;20.45;86.23
64230;BME280;50547;49.498;0.092;2022-08-19T04:49:32;1012;;;20.41;86.25
64230;BME280;50547;49.498;0.092;2022-08-19T04:52:02;1012;;;20.51;85.37
64230;BME280;50547;49.498;0.092;2022-08-19T04:54:31;1012;;;20.59;84.85
64230;BME280;50547;49.498;0.092;2022-08-19T04:57:00;1012;;;20.67;84.23
64230;BME280;50547;49.498;0.092;2022-08-19T04:59:29;1012;;;20.59;84.58
64230;BME280;50547;49.498;0.092;2022-08-19T05:01:58;1012;;;20.53;85.00
64230;BME280;50547;49.498;0.092;2022-08-19T05:04:27;1012;;;20.50;85.74
64230;BME280;50547;49.498;0.092;2022-08-19T05:06:56;1012;;;20.51;85.48
64230;BME280;50547;49.498;0.092;2022-08-19T05:09:25;1012;;;20.46;86.01
64230;BME280;50547;49.498;0.092;2022-08-19T05:11:54;1012;;;20.29;87.05
64230;BME280;50547;49.498;0.092;2022-08-19T05:14:23;1012;;;20.44;86.37
64230;BME280;50547;49.498;0.092;2022-08-19T05:16:52;1012;;;20.46;85.99
64230;BME280;50547;49.498;0.092;2022-08-19T05:19:21;1012;;;20.44;86.50
64230;BME280;50547;49.498;0.092;2022-08-19T05:21:50;1012;;;20.39;86.79
64230;BME280;50547;49.498;0.092;2022-08-19T05:24:21;1012;;;20.35;87.08
64230;BME280;50547;49.498;0.092;2022-08-19T05:26:52;1012;;;20.44;86.51
64230;BME280;50547;49.498;0.092;2022-08-19T05:29:24;1012;;;20.29;87.71
64230;BME280;50547;49.498;0.092;2022-08-19T05:31:54;1012;;;20.16;88.29
64230;BME280;50547;49.498;0.092;2022-08-19T05:34:24;1012;;;20.21;88.45
64230;BME280;50547;49.498;0.092;2022-08-19T05:36:55;1012;;;20.19;88.04
64230;BME280;50547;49.498;0.092;2022-08-19T05:39:27;1012;;;20.19;88.52
64230;BME280;50547;49.498;0.092;2022-08-19T05:41:58;1012;;;20.13;88.76
64230;BME280;50547;49.498;0.092;2022-08-19T05:44:31;1012;;;20.15;88.93
64230;BME280;50547;49.498;0.092;2022-08-19T05:47:03;1012;;;20.01;89.58
64230;BME280;50547;49.498;0.092;2022-08-19T05:49:33;1012;;;19.97;89.87
64230;BME280;50547;49.498;0.092;2022-08-19T05:52:03;1012;;;20.01;89.49
64230;BME280;50547;49.498;0.092;2022-08-19T05:54:33;1012;;;19.92;89.90
64230;BME280;50547;49.498;0.092;2022-08-19T05:57:03;1012;;;19.85;89.98
64230;BME280;50547;49.498;0.092;2022-08-19T05:59:32;1012;;;19.89;89.78
64230;BME280;50547;49.498;0.092;2022-08-19T06:02:03;1012;;;20.02;89.06
64230;BME280;50547;49.498;0.092;2022-08-19T06:04:33;1012;;;20.05;88.96
64230;BME280;50547;49.498;0.092;2022-08-19T06:07:03;1012;;;19.70;90.59
64230;BME280;50547;49.498;0.092;2022-08-19T06:09:32;1012;;;19.91;89.81
64230;BME280;50547;49.498;0.092;2022-08-19T06:12:01;1012;;;19.75;90.30
64230;BME280;50547;49.498;0.092;2022-08-19T06:14:33;1012;;;19.88;89.79
64230;BME280;50547;49.498;0.092;2022-08-19T06:17:03;1012;;;20.04;89.23
64230;BME280;50547;49.498;0.092;2022-08-19T06:19:32;1012;;;19.85;89.75
64230;BME280;50547;49.498;0.092;2022-08-19T06:22:01;1012;;;20.00;89.26
64230;BME280;50547;49.498;0.092;2022-08-19T06:24:30;1012;;;20.04;88.68
64230;BME280;50547;49.498;0.092;2022-08-19T06:27:00;1012;;;20.15;88.42
64230;BME280;50547;49.498;0.092;2022-08-19T06:29:29;1012;;;20.13;88.37
64230;BME280;50547;49.498;0.092;2022-08-19T06:32:00;1012;;;20.18;88.10
64230;BME280;50547;49.498;0.092;2022-08-19T06:34:32;1012;;;20.05;88.53
64230;BME280;50547;49.498;0.092;2022-08-19T06:37:02;1012;;;20.12;88.05
64230;BME280;50547;49.498;0.092;2022-08-19T06:39:33;1012;;;20.21;87.52
64230;BME280;50547;49.498;0.092;2022-08-19T06:42:05;1012;;;20.15;87.84
64230;BME280;50547;49.498;0.092;2022-08-19T06:44:36;1012;;;20.09;88.32
64230;BME280;50547;49.498;0.092;2022-08-19T06:47:07;1012;;;20.15;87.76
64230;BME280;50547;49.498;0.092;2022-08-19T06:49:37;1012;;;20.28;87.34
64230;BME280;50547;49.498;0.092;2022-08-19T06:52:06;1012;;;20.34;87.43
64230;BME280;50547;49.498;0.092;2022-08-19T06:54:35;1012;;;20.31;87.19
64230;BME280;50547;49.498;0.092;2022-08-19T06:57:04;1012;;;20.31;87.46
64230;BME280;50547;49.498;0.092;2022-08-19T06:59:34;1012;;;20.25;87.57
64230;BME280;50547;49.498;0.092;2022-08-19T07:02:05;1012;;;20.26;87.51
64230;BME280;50547;49.498;0.092;2022-08-19T07:04:35;1012;;;20.41;86.60
64230;BME280;50547;49.498;0.092;2022-08-19T07:07:06;1012;;;20.36;87.00
64230;BME280;50547;49.498;0.092;2022-08-19T07:09:39;1012;;;20.59;85.76
64230;BME280;50547;49.498;0.092;2022-08-19T07:12:10;1012;;;20.78;85.48
64230;BME280;50547;49.498;0.092;2022-08-19T07:14:38;1012;;;20.77;85.64
64230;BME280;50547;49.498;0.092;2022-08-19T07:17:14;1012;;;20.75;86.22
64230;BME280;50547;49.498;0.092;2022-08-19T07:19:43;1012;;;20.79;85.58
64230;BME280;50547;49.498;0.092;2022-08-19T07:22:13;1012;;;20.67;86.57
64230;BME280;50547;49.498;0.092;2022-08-19T07:24:47;1012;;;20.56;86.93
64230;BME280;50547;49.498;0.092;2022-08-19T07:27:17;1012;;;20.64;86.69
64230;BME280;50547;49.498;0.092;2022-08-19T07:29:48;1012;;;20.60;86.74
64230;BME280;50547;49.498;0.092;2022-08-19T07:32:17;1012;;;20.65;86.17
64230;BME280;50547;49.498;0.092;2022-08-19T07:34:46;1012;;;20.73;85.89
64230;BME280;50547;49.498;0.092;2022-08-19T07:37:15;1012;;;20.98;84.64
64230;BME280;50547;49.498;0.092;2022-08-19T07:39:44;1012;;;20.94;84.58
64230;BME280;50547;49.498;0.092;2022-08-19T07:42:14;1012;;;21.05;84.87
64230;BME280;50547;49.498;0.092;2022-08-19T07:44:43;1012;;;20.94;85.41
64230;BME280;50547;49.498;0.092;2022-08-19T07:47:12;1012;;;20.81;85.39
64230;BME280;50547;49.498;0.092;2022-08-19T07:49:38;1012;;;20.81;85.99
64230;BME280;50547;49.498;0.092;2022-08-19T07:52:09;1012;;;20.85;86.51
64230;BME280;50547;49.498;0.092;2022-08-19T07:54:44;1012;;;20.51;88.88
64230;BME280;50547;49.498;0.092;2022-08-19T07:57:25;1012;;;20.54;88.87
64230;BME280;50547;49.498;0.092;2022-08-19T07:59:54;1012;;;20.53;88.21
64230;BME280;50547;49.498;0.092;2022-08-19T08:02:24;1012;;;20.52;87.13
64230;BME280;50547;49.498;0.092;2022-08-19T08:04:53;1012;;;20.49;86.83
64230;BME280;50547;49.498;0.092;2022-08-19T08:07:22;1012;;;20.63;85.82
64230;BME280;50547;49.498;0.092;2022-08-19T08:09:51;1012;;;20.74;85.78
64230;BME280;50547;49.498;0.092;2022-08-19T08:12:27;1012;;;20.79;85.47
64230;BME280;50547;49.498;0.092;2022-08-19T08:14:59;1012;;;20.78;85.87
64230;BME280;50547;49.498;0.092;2022-08-19T08:17:27;1012;;;20.85;85.24
64230;BME280;50547;49.498;0.092;2022-08-19T08:19:56;1012;;;20.86;85.02
64230;BME280;50547;49.498;0.092;2022-08-19T08:22:27;1012;;;21.00;84.87
64230;BME280;50547;49.498;0.092;2022-08-19T08:24:56;1012;;;21.03;84.91
64230;BME280;50547;49.498;0.092;2022-08-19T08:27:25;1012;;;21.08;84.99
64230;BME280;50547;49.498;0.092;2022-08-19T08:29:54;1012;;;20.85;85.18
64230;BME280;50547;49.498;0.092;2022-08-19T08:32:23;1012;;;21.06;84.61
64230;BME280;50547;49.498;0.092;2022-08-19T08:34:52;1012;;;21.10;84.12
64230;BME280;50547;49.498;0.092;2022-08-19T08:37:19;1012;;;21.02;84.76
64230;BME280;50547;49.498;0.092;2022-08-19T08:39:48;1012;;;21.07;84.51
64230;BME280;50547;49.498;0.092;2022-08-19T08:42:28;1012;;;21.08;84.13
64230;BME280;50547;49.498;0.092;2022-08-19T08:45:00;1012;;;21.17;84.36
64230;BME280;50547;49.498;0.092;2022-08-19T08:47:36;1012;;;21.09;84.70
64230;BME280;50547;49.498;0.092;2022-08-19T08:50:10;1012;;;21.04;84.35
64230;BME280;50547;49.498;0.092;2022-08-19T08:52:45;1012;;;21.27;83.86
64230;BME280;50547;49.498;0.092;2022-08-19T08:55:20;1012;;;21.44;82.82
64230;BME280;50547;49.498;0.092;2022-08-19T08:57:55;1012;;;21.36;83.43
64230;BME280;50547;49.498;0.092;2022-08-19T09:00:31;1012;;;21.19;84.48
64230;BME280;50547;49.498;0.092;2022-08-19T09:03:03;1012;;;21.30;85.02
64230;BME280;50547;49.498;0.092;2022-08-19T09:05:39;1012;;;21.25;84.91
64230;BME280;50547;49.498;0.092;2022-08-19T09:08:17;1012;;;21.30;84.80
64230;BME280;50547;49.498;0.092;2022-08-19T09:10:54;1012;;;21.05;85.38
64230;BME280;50547;49.498;0.092;2022-08-19T09:13:31;1012;;;21.23;84.36
64230;BME280;50547;49.498;0.092;2022-08-19T09:16:06;1012;;;21.27;84.53
64230;BME280;50547;49.498;0.092;2022-08-19T09:18:41;1012;;;21.15;85.17
64230;BME280;50547;49.498;0.092;2022-08-19T09:21:11;1012;;;21.29;84.86
64230;BME280;50547;49.498;0.092;2022-08-19T09:23:41;1012;;;21.26;85.15
64230;BME280;50547;49.498;0.092;2022-08-19T09:26:09;1012;;;21.14;85.61
64230;BME280;50547;49.498;0.092;2022-08-19T09:28:39;1012;;;21.00;86.77
64230;BME280;50547;49.498;0.092;2022-08-19T09:31:08;1012;;;20.99;87.49
64230;BME280;50547;49.498;0.092;2022-08-19T09:33:37;1012;;;20.87;87.77
64230;BME280;50547;49.498;0.092;2022-08-19T09:36:08;1012;;;20.79;88.47
64230;BME280;50547;49.498;0.092;2022-08-19T09:38:39;1012;;;20.64;89.25
64230;BME280;50547;49.498;0.092;2022-08-19T09:41:09;1012;;;20.62;89.12
64230;BME280;50547;49.498;0.092;2022-08-19T09:43:40;1012;;;20.58;89.46
64230;BME280;50547;49.498;0.092;2022-08-19T09:46:11;1012;;;20.74;88.41
64230;BME280;50547;49.498;0.092;2022-08-19T09:48:41;1013;;;20.69;88.10
64230;BME280;50547;49.498;0.092;2022-08-19T09:51:12;1012;;;20.50;88.26
64230;BME280;50547;49.498;0.092;2022-08-19T09:53:42;1012;;;20.75;87.26
64230;BME280;50547;49.498;0.092;2022-08-19T09:56:13;1012;;;20.85;86.62
64230;BME280;50547;49.498;0.092;2022-08-19T09:58:42;1013;;;20.89;86.27
64230;BME280;50547;49.498;0.092;2022-08-19T10:01:16;1012;;;20.92;85.20
64230;BME280;50547;49.498;0.092;2022-08-19T10:03:48;1012;;;20.97;84.33
64230;BME280;50547;49.498;0.092;2022-08-19T10:06:18;1013;;;21.27;83.08
64230;BME280;50547;49.498;0.092;2022-08-19T10:08:47;1012;;;21.52;81.99
64230;BME280;50547;49.498;0.092;2022-08-19T10:11:17;1013;;;21.73;81.79
64230;BME280;50547;49.498;0.092;2022-08-19T10:13:48;1013;;;21.73;81.38
64230;BME280;50547;49.498;0.092;2022-08-19T10:16:19;1013;;;21.56;82.48
64230;BME280;50547;49.498;0.092;2022-08-19T10:18:49;1013;;;21.57;82.76
64230;BME280;50547;49.498;0.092;2022-08-19T10:21:21;1013;;;21.75;81.59
64230;BME280;50547;49.498;0.092;2022-08-19T10:23:53;1013;;;21.97;80.80
64230;BME280;50547;49.498;0.092;2022-08-19T10:26:24;1013;;;21.88;80.83
64230;BME280;50547;49.498;0.092;2022-08-19T10:29:05;1013;;;21.72;81.92
64230;BME280;50547;49.498;0.092;2022-08-19T10:31:33;1013;;;21.98;81.43
64230;BME280;50547;49.498;0.092;2022-08-19T10:34:02;1013;;;21.91;81.62
64230;BME280;50547;49.498;0.092;2022-08-19T10:36:34;1013;;;21.73;82.79
64230;BME280;50547;49.498;0.092;2022-08-19T10:39:06;1013;;;21.73;82.11
64230;BME280;50547;49.498;0.092;2022-08-19T10:41:37;1013;;;21.80;81.48
64230;BME280;50547;49.498;0.092;2022-08-19T10:44:10;1013;;;21.63;82.53
64230;BME280;50547;49.498;0.092;2022-08-19T10:46:41;1013;;;21.81;82.71
64230;BME280;50547;49.498;0.092;2022-08-19T10:49:11;1013;;;22.02;81.65
64230;BME280;50547;49.498;0.092;2022-08-19T10:51:40;1013;;;22.15;80.33
64230;BME280;50547;49.498;0.092;2022-08-19T10:54:10;1013;;;22.38;79.63
64230;BME280;50547;49.498;0.092;2022-08-19T10:56:39;1013;;;22.32;79.40
64230;BME280;50547;49.498;0.092;2022-08-19T10:59:08;1013;;;22.31;79.21
64230;BME280;50547;49.498;0.092;2022-08-19T11:01:38;1013;;;22.51;78.77
64230;BME280;50547;49.498;0.092;2022-08-19T11:04:07;1013;;;22.53;78.82
64230;BME280;50547;49.498;0.092;2022-08-19T11:06:37;1013;;;22.23;80.60
64230;BME280;50547;49.498;0.092;2022-08-19T11:09:06;1013;;;22.25;79.86
64230;BME280;50547;49.498;0.092;2022-08-19T11:11:36;1013;;;21.94;81.72
64230;BME280;50547;49.498;0.092;2022-08-19T11:14:06;1013;;;21.86;82.18
64230;BME280;50547;49.498;0.092;2022-08-19T11:17:02;1013;;;22.06;81.04
64230;BME280;50547;49.498;0.092;2022-08-19T11:19:32;1013;;;22.00;80.08
64230;BME280;50547;49.498;0.092;2022-08-19T11:22:01;1013;;;22.07;80.39
64230;BME280;50547;49.498;0.092;2022-08-19T11:24:31;1013;;;22.27;79.99
64230;BME280;50547;49.498;0.092;2022-08-19T11:27:03;1013;;;22.30;80.48
64230;BME280;50547;49.498;0.092;2022-08-19T11:29:33;1013;;;22.25;81.35
64230;BME280;50547;49.498;0.092;2022-08-19T11:32:04;1013;;;22.08;82.17
64230;BME280;50547;49.498;0.092;2022-08-19T11:34:34;1013;;;22.06;81.49
64230;BME280;50547;49.498;0.092;2022-08-19T11:37:04;1013;;;21.86;82.29
64230;BME280;50547;49.498;0.092;2022-08-19T11:39:35;1013;;;21.99;81.51
64230;BME280;50547;49.498;0.092;2022-08-19T11:42:07;1013;;;21.96;81.77
64230;BME280;50547;49.498;0.092;2022-08-19T11:44:36;1013;;;21.83;82.41
64230;BME280;50547;49.498;0.092;2022-08-19T11:47:04;1013;;;21.75;82.51
64230;BME280;50547;49.498;0.092;2022-08-19T11:49:30;1013;;;21.83;81.02
64230;BME280;50547;49.498;0.092;2022-08-19T11:51:56;1013;;;21.79;82.61
64230;BME280;50547;49.498;0.092;2022-08-19T11:54:22;1013;;;21.41;85.56
64230;BME280;50547;49.498;0.092;2022-08-19T11:56:51;1013;;;21.36;86.53
64230;BME280;50547;49.498;0.092;2022-08-19T11:59:20;1013;;;21.67;84.95
64230;BME280;50547;49.498;0.092;2022-08-19T12:02:21;1013;;;21.79;83.09
64230;BME280;50547;49.498;0.092;2022-08-19T12:04:50;1013;;;21.78;83.64
64230;BME280;50547;49.498;0.092;2022-08-19T12:07:19;1013;;;21.83;83.32
64230;BME280;50547;49.498;0.092;2022-08-19T12:09:48;1013;;;21.98;82.72
64230;BME280;50547;49.498;0.092;2022-08-19T12:12:18;1013;;;21.92;82.31
64230;BME280;50547;49.498;0.092;2022-08-19T12:14:47;1013;;;21.84;82.62
64230;BME280;50547;49.498;0.092;2022-08-19T12:17:16;1013;;;21.76;82.73
64230;BME280;50547;49.498;0.092;2022-08-19T12:19:46;1013;;;21.84;82.52
64230;BME280;50547;49.498;0.092;2022-08-19T12:22:15;1013;;;21.84;82.51
64230;BME280;50547;49.498;0.092;2022-08-19T12:24:44;1013;;;21.79;83.04
64230;BME280;50547;49.498;0.092;2022-08-19T12:27:12;1013;;;21.76;83.77
64230;BME280;50547;49.498;0.092;2022-08-19T12:29:42;1013;;;21.87;83.00
64230;BME280;50547;49.498;0.092;2022-08-19T12:32:11;1013;;;21.91;83.05
64230;BME280;50547;49.498;0.092;2022-08-19T12:34:40;1013;;;21.89;82.68
64230;BME280;50547;49.498;0.092;2022-08-19T12:37:11;1013;;;21.76;82.98
64230;BME280;50547;49.498;0.092;2022-08-19T12:39:42;1013;;;21.73;83.25
64230;BME280;50547;49.498;0.092;2022-08-19T12:42:14;1013;;;21.74;83.12
64230;BME280;50547;49.498;0.092;2022-08-19T12:44:44;1013;;;21.85;82.65
64230;BME280;50547;49.498;0.092;2022-08-19T12:47:13;1013;;;21.94;82.77
64230;BME280;50547;49.498;0.092;2022-08-19T12:49:43;1013;;;21.85;83.62
64230;BME280;50547;49.498;0.092;2022-08-19T12:52:13;1013;;;21.76;84.63
64230;BME280;50547;49.498;0.092;2022-08-19T12:54:42;1013;;;21.77;83.97
64230;BME280;50547;49.498;0.092;2022-08-19T12:57:11;1013;;;21.68;84.37
64230;BME280;50547;49.498;0.092;2022-08-19T12:59:40;1013;;;21.48;86.01
64230;BME280;50547;49.498;0.092;2022-08-19T13:02:10;1013;;;21.46;86.14
64230;BME280;50547;49.498;0.092;2022-08-19T13:04:39;1013;;;21.48;85.84
64230;BME280;50547;49.498;0.092;2022-08-19T13:07:06;1013;;;21.30;86.75
64230;BME280;50547;49.498;0.092;2022-08-19T13:09:36;1013;;;21.21;86.36
64230;BME280;50547;49.498;0.092;2022-08-19T13:12:06;1013;;;21.28;86.09
64230;BME280;50547;49.498;0.092;2022-08-19T13:14:36;1013;;;21.07;87.70
64230;BME280;50547;49.498;0.092;2022-08-19T13:17:05;1013;;;21.02;88.28
64230;BME280;50547;49.498;0.092;2022-08-19T13:19:36;1013;;;21.15;87.93
64230;BME280;50547;49.498;0.092;2022-08-19T13:22:05;1013;;;21.14;87.14
64230;BME280;50547;49.498;0.092;2022-08-19T13:24:34;1013;;;21.18;86.78
64230;BME280;50547;49.498;0.092;2022-08-19T13:27:03;1013;;;21.02;88.13
64230;BME280;50547;49.498;0.092;2022-08-19T13:29:33;1013;;;20.31;91.25
64230;BME280;50547;49.498;0.092;2022-08-19T13:32:07;1013;;;20.18;91.87
64230;BME280;50547;49.498;0.092;2022-08-19T13:34:37;1013;;;20.03;91.93
64230;BME280;50547;49.498;0.092;2022-08-19T13:37:04;1013;;;19.98;91.75
64230;BME280;50547;49.498;0.092;2022-08-19T13:39:34;1013;;;20.17;90.58
64230;BME280;50547;49.498;0.092;2022-08-19T13:42:04;1013;;;20.33;89.72
64230;BME280;50547;49.498;0.092;2022-08-19T13:44:32;1013;;;20.16;90.69
64230;BME280;50547;49.498;0.092;2022-08-19T13:47:06;1013;;;19.91;91.40
64230;BME280;50547;49.498;0.092;2022-08-19T13:49:41;1013;;;19.88;91.01
64230;BME280;50547;49.498;0.092;2022-08-19T13:52:07;1013;;;20.06;89.95
64230;BME280;50547;49.498;0.092;2022-08-19T13:54:37;1013;;;20.23;88.70
64230;BME280;50547;49.498;0.092;2022-08-19T13:57:06;1013;;;20.55;87.47
64230;BME280;50547;49.498;0.092;2022-08-19T13:59:35;1013;;;20.42;87.55
64230;BME280;50547;49.498;0.092;2022-08-19T14:02:06;1013;;;20.57;87.43